sensor_id;sensor_type;location;lat;lon;timestamp;P1;durP1;ratioP1;P2;durP2;ratioP2
13590;SDS011;6866;50.778;7.206;2023-06-26T00:02:15;10.88;;;6.55;;
13590;SDS011;6866;50.778;7.206;2023-06-26T00:04:42;8.52;;;6.05;;
13590;SDS011;6866;50.778;7.206;2023-06-26T00:07:08;8.93;;;6.97;;
13590;SDS011;6866;50.778;7.206;2023-06-26T00:09:33;8.98;;;6.40;;
13590;SDS011;6866;50.778;7.206;2023-06-26T00:11:59;8.57;;;6.70;;
13590;SDS011;6866;50.778;7.206;2023-06-26T00:14:25;8.85;;;6.47;;
13590;SDS011;6866;50.778;7.206;2023-06-26T00:16:51;10.13;;;6.68;;
13590;SDS011;6866;50.778;7.206;2023-06-26T00:19:17;12.82;;;6.47;;
13590;SDS011;6866;50.778;7.206;2023-06-26T00:21:43;10.32;;;6.82;;
13590;SDS011;6866;50.778;7.206;2023-06-26T00:24:13;9.35;;;6.38;;
13590;SDS011;6866;50.778;7.206;2023-06-26T00:26:41;8.02;;;6.60;;
13590;SDS011;6866;50.778;7.206;2023-06-26T00:29:07;8.73;;;6.43;;
13590;SDS011;6866;50.778;7.206;2023-06-26T00:31:33;8.68;;;6.30;;
13590;SDS011;6866;50.778;7.206;2023-06-26T00:34:00;10.38;;;6.68;;
13590;SDS011;6866;50.778;7.206;2023-06-26T00:36:26;10.07;;;6.50;;
13590;SDS011;6866;50.778;7.206;2023-06-26T00:38:52;8.40;;;6.20;;
13590;SDS011;6866;50.778;7.206;2023-06-26T00:41:18;9.27;;;6.47;;
13590;SDS011;6866;50.778;7.206;2023-06-26T00:43:44;10.05;;;6.80;;
13590;SDS011;6866;50.778;7.206;2023-06-26T00:46:10;9.95;;;6.40;;
13590;SDS011;6866;50.778;7.206;2023-06-26T00:48:37;9.60;;;6.90;;
13590;SDS011;6866;50.778;7.206;2023-06-26T00:51:05;12.52;;;6.90;;
13590;SDS011;6866;50.778;7.206;2023-06-26T00:53:32;10.07;;;6.60;;
13590;SDS011;6866;50.778;7.206;2023-06-26T00:55:58;8.80;;;6.70;;
13590;SDS011;6866;50.778;7.206;2023-06-26T00:58:25;12.45;;;7.57;;
13590;SDS011;6866;50.778;7.206;2023-06-26T01:03:26;8.05;;;6.80;;
13590;SDS011;6866;50.778;7.206;2023-06-26T01:05:52;15.63;;;7.25;;
13590;SDS011;6866;50.778;7.206;2023-06-26T01:08:18;9.20;;;6.75;;
13590;SDS011;6866;50.778;7.206;2023-06-26T01:10:45;9.85;;;6.82;;
13590;SDS011;6866;50.778;7.206;2023-06-26T01:13:11;8.18;;;6.40;;
13590;SDS011;6866;50.778;7.206;2023-06-26T01:15:38;8.43;;;6.57;;
13590;SDS011;6866;50.778;7.206;2023-06-26T01:18:04;8.98;;;6.32;;
13590;SDS011;6866;50.778;7.206;2023-06-26T01:20:31;8.13;;;6.53;;
13590;SDS011;6866;50.778;7.206;2023-06-26T01:28:13;10.40;;;7.07;;
13590;SDS011;6866;50.778;7.206;2023-06-26T01:30:43;9.50;;;7.03;;
13590;SDS011;6866;50.778;7.206;2023-06-26T01:33:10;9.48;;;6.45;;
13590;SDS011;6866;50.778;7.206;2023-06-26T01:35:37;9.25;;;6.85;;
13590;SDS011;6866;50.778;7.206;2023-06-26T01:38:16;10.05;;;6.63;;
13590;SDS011;6866;50.778;7.206;2023-06-26T01:40:43;10.07;;;7.03;;
13590;SDS011;6866;50.778;7.206;2023-06-26T01:46:05;9.25;;;6.68;;
13590;SDS011;6866;50.778;7.206;2023-06-26T01:48:38;12.00;;;6.63;;
13590;SDS011;6866;50.778;7.206;2023-06-26T01:51:11;9.52;;;6.53;;
13590;SDS011;6866;50.778;7.206;2023-06-26T01:53:41;9.82;;;6.53;;
13590;SDS011;6866;50.778;7.206;2023-06-26T01:56:12;10.10;;;6.90;;
13590;SDS011;6866;50.778;7.206;2023-06-26T01:58:40;9.95;;;6.90;;
13590;SDS011;6866;50.778;7.206;2023-06-26T02:03:36;9.82;;;7.00;;
13590;SDS011;6866;50.778;7.206;2023-06-26T02:06:01;9.05;;;6.88;;
13590;SDS011;6866;50.778;7.206;2023-06-26T02:08:27;9.95;;;6.80;;
13590;SDS011;6866;50.778;7.206;2023-06-26T02:10:53;8.93;;;6.28;;
13590;SDS011;6866;50.778;7.206;2023-06-26T02:13:18;8.77;;;6.43;;
13590;SDS011;6866;50.778;7.206;2023-06-26T02:15:44;10.73;;;6.93;;
13590;SDS011;6866;50.778;7.206;2023-06-26T02:18:09;10.43;;;7.13;;
13590;SDS011;6866;50.778;7.206;2023-06-26T02:20:35;9.02;;;6.80;;
13590;SDS011;6866;50.778;7.206;2023-06-26T02:23:00;8.10;;;6.35;;
13590;SDS011;6866;50.778;7.206;2023-06-26T02:25:26;11.32;;;6.72;;
13590;SDS011;6866;50.778;7.206;2023-06-26T02:27:51;9.30;;;6.80;;
13590;SDS011;6866;50.778;7.206;2023-06-26T02:30:17;8.68;;;6.68;;
13590;SDS011;6866;50.778;7.206;2023-06-26T02:32:43;10.68;;;7.10;;
13590;SDS011;6866;50.778;7.206;2023-06-26T02:35:08;12.10;;;6.70;;
13590;SDS011;6866;50.778;7.206;2023-06-26T02:37:34;11.70;;;6.68;;
13590;SDS011;6866;50.778;7.206;2023-06-26T02:39:59;13.32;;;6.82;;
13590;SDS011;6866;50.778;7.206;2023-06-26T02:42:25;10.10;;;6.82;;
13590;SDS011;6866;50.778;7.206;2023-06-26T02:44:50;11.73;;;6.47;;
13590;SDS011;6866;50.778;7.206;2023-06-26T02:47:16;10.23;;;6.82;;
13590;SDS011;6866;50.778;7.206;2023-06-26T02:49:42;9.35;;;6.82;;
13590;SDS011;6866;50.778;7.206;2023-06-26T02:52:07;9.30;;;6.60;;
13590;SDS011;6866;50.778;7.206;2023-06-26T02:54:33;9.45;;;6.90;;
13590;SDS011;6866;50.778;7.206;2023-06-26T02:56:58;7.97;;;6.72;;
13590;SDS011;6866;50.778;7.206;2023-06-26T02:59:24;10.10;;;6.78;;
13590;SDS011;6866;50.778;7.206;2023-06-26T03:01:51;10.65;;;7.05;;
13590;SDS011;6866;50.778;7.206;2023-06-26T03:04:16;10.15;;;6.75;;
13590;SDS011;6866;50.778;7.206;2023-06-26T03:06:43;10.05;;;6.57;;
13590;SDS011;6866;50.778;7.206;2023-06-26T03:09:08;9.82;;;6.70;;
13590;SDS011;6866;50.778;7.206;2023-06-26T03:11:34;11.15;;;6.50;;
13590;SDS011;6866;50.778;7.206;2023-06-26T03:13:59;9.90;;;6.55;;
13590;SDS011;6866;50.778;7.206;2023-06-26T03:16:25;8.63;;;6.68;;
13590;SDS011;6866;50.778;7.206;2023-06-26T03:18:50;10.48;;;7.18;;
13590;SDS011;6866;50.778;7.206;2023-06-26T03:21:17;9.30;;;6.25;;
13590;SDS011;6866;50.778;7.206;2023-06-26T03:23:42;10.68;;;6.95;;
13590;SDS011;6866;50.778;7.206;2023-06-26T03:26:08;8.27;;;6.38;;
13590;SDS011;6866;50.778;7.206;2023-06-26T03:28:34;11.63;;;7.55;;
13590;SDS011;6866;50.778;7.206;2023-06-26T03:30:59;9.02;;;7.07;;
13590;SDS011;6866;50.778;7.206;2023-06-26T03:33:24;11.60;;;6.97;;
13590;SDS011;6866;50.778;7.206;2023-06-26T03:35:50;8.88;;;6.97;;
13590;SDS011;6866;50.778;7.206;2023-06-26T03:38:16;9.73;;;7.60;;
13590;SDS011;6866;50.778;7.206;2023-06-26T03:40:41;9.73;;;7.40;;
13590;SDS011;6866;50.778;7.206;2023-06-26T03:43:07;9.75;;;6.80;;
13590;SDS011;6866;50.778;7.206;2023-06-26T03:45:32;10.90;;;7.03;;
13590;SDS011;6866;50.778;7.206;2023-06-26T03:47:58;11.07;;;7.03;;
13590;SDS011;6866;50.778;7.206;2023-06-26T03:50:23;9.50;;;7.22;;
13590;SDS011;6866;50.778;7.206;2023-06-26T03:52:49;11.32;;;7.13;;
13590;SDS011;6866;50.778;7.206;2023-06-26T03:55:16;9.73;;;7.13;;
13590;SDS011;6866;50.778;7.206;2023-06-26T03:57:42;12.93;;;7.30;;
13590;SDS011;6866;50.778;7.206;2023-06-26T04:00:08;10.25;;;7.07;;
13590;SDS011;6866;50.778;7.206;2023-06-26T04:02:34;9.77;;;6.72;;
13590;SDS011;6866;50.778;7.206;2023-06-26T04:05:00;9.55;;;6.78;;
13590;SDS011;6866;50.778;7.206;2023-06-26T04:07:26;11.20;;;7.13;;
13590;SDS011;6866;50.778;7.206;2023-06-26T04:09:52;13.05;;;7.30;;
13590;SDS011;6866;50.778;7.206;2023-06-26T04:12:17;9.60;;;6.97;;
13590;SDS011;6866;50.778;7.206;2023-06-26T04:14:43;9.70;;;6.93;;
13590;SDS011;6866;50.778;7.206;2023-06-26T04:17:09;14.20;;;7.13;;
13590;SDS011;6866;50.778;7.206;2023-06-26T04:19:35;12.68;;;7.63;;
13590;SDS011;6866;50.778;7.206;2023-06-26T04:22:01;12.10;;;6.82;;
13590;SDS011;6866;50.778;7.206;2023-06-26T04:24:27;10.75;;;6.88;;
13590;SDS011;6866;50.778;7.206;2023-06-26T04:26:53;11.55;;;7.13;;
13590;SDS011;6866;50.778;7.206;2023-06-26T04:29:22;10.23;;;6.50;;
13590;SDS011;6866;50.778;7.206;2023-06-26T04:31:50;13.07;;;7.00;;
13590;SDS011;6866;50.778;7.206;2023-06-26T04:34:16;11.65;;;6.75;;
13590;SDS011;6866;50.778;7.206;2023-06-26T04:36:41;12.77;;;6.72;;
13590;SDS011;6866;50.778;7.206;2023-06-26T04:39:13;13.23;;;6.60;;
13590;SDS011;6866;50.778;7.206;2023-06-26T04:41:39;12.50;;;7.00;;
13590;SDS011;6866;50.778;7.206;2023-06-26T04:44:05;13.57;;;6.95;;
13590;SDS011;6866;50.778;7.206;2023-06-26T04:46:31;10.43;;;6.53;;
13590;SDS011;6866;50.778;7.206;2023-06-26T04:48:56;9.63;;;6.47;;
13590;SDS011;6866;50.778;7.206;2023-06-26T04:51:23;11.30;;;6.47;;
13590;SDS011;6866;50.778;7.206;2023-06-26T04:53:49;9.73;;;6.63;;
13590;SDS011;6866;50.778;7.206;2023-06-26T04:56:15;11.52;;;6.65;;
13590;SDS011;6866;50.778;7.206;2023-06-26T04:58:40;13.18;;;6.78;;
13590;SDS011;6866;50.778;7.206;2023-06-26T05:01:06;12.68;;;6.78;;
13590;SDS011;6866;50.778;7.206;2023-06-26T05:03:31;11.02;;;7.10;;
13590;SDS011;6866;50.778;7.206;2023-06-26T05:05:57;14.98;;;7.25;;
13590;SDS011;6866;50.778;7.206;2023-06-26T05:08:23;10.13;;;6.63;;
13590;SDS011;6866;50.778;7.206;2023-06-26T05:10:51;11.35;;;5.90;;
13590;SDS011;6866;50.778;7.206;2023-06-26T05:13:18;10.05;;;5.95;;
13590;SDS011;6866;50.778;7.206;2023-06-26T05:15:45;12.13;;;5.57;;
13590;SDS011;6866;50.778;7.206;2023-06-26T05:20:36;8.43;;;5.30;;
13590;SDS011;6866;50.778;7.206;2023-06-26T05:23:03;7.00;;;4.47;;
13590;SDS011;6866;50.778;7.206;2023-06-26T05:25:29;7.10;;;4.93;;
13590;SDS011;6866;50.778;7.206;2023-06-26T05:27:56;8.45;;;5.22;;
13590;SDS011;6866;50.778;7.206;2023-06-26T05:30:22;7.00;;;4.45;;
13590;SDS011;6866;50.778;7.206;2023-06-26T05:32:50;7.68;;;4.88;;
13590;SDS011;6866;50.778;7.206;2023-06-26T05:35:17;7.88;;;4.88;;
13590;SDS011;6866;50.778;7.206;2023-06-26T05:37:43;8.30;;;5.55;;
13590;SDS011;6866;50.778;7.206;2023-06-26T05:40:09;7.90;;;4.90;;
13590;SDS011;6866;50.778;7.206;2023-06-26T05:42:35;10.13;;;5.20;;
13590;SDS011;6866;50.778;7.206;2023-06-26T05:45:01;8.05;;;5.05;;
13590;SDS011;6866;50.778;7.206;2023-06-26T05:47:26;7.28;;;5.00;;
13590;SDS011;6866;50.778;7.206;2023-06-26T05:49:52;7.32;;;4.93;;
13590;SDS011;6866;50.778;7.206;2023-06-26T05:52:17;9.00;;;4.97;;
13590;SDS011;6866;50.778;7.206;2023-06-26T05:54:43;7.25;;;4.90;;
13590;SDS011;6866;50.778;7.206;2023-06-26T05:57:09;10.52;;;4.97;;
13590;SDS011;6866;50.778;7.206;2023-06-26T05:59:35;8.07;;;5.07;;
13590;SDS011;6866;50.778;7.206;2023-06-26T06:02:04;7.60;;;4.63;;
13590;SDS011;6866;50.778;7.206;2023-06-26T06:04:30;8.85;;;4.80;;
13590;SDS011;6866;50.778;7.206;2023-06-26T06:06:55;9.02;;;4.57;;
13590;SDS011;6866;50.778;7.206;2023-06-26T06:09:21;7.65;;;4.40;;
13590;SDS011;6866;50.778;7.206;2023-06-26T06:11:46;9.27;;;4.90;;
13590;SDS011;6866;50.778;7.206;2023-06-26T06:14:12;9.90;;;4.90;;
13590;SDS011;6866;50.778;7.206;2023-06-26T06:16:37;8.75;;;4.65;;
13590;SDS011;6866;50.778;7.206;2023-06-26T06:19:03;10.25;;;4.53;;
13590;SDS011;6866;50.778;7.206;2023-06-26T06:31:13;9.77;;;4.30;;
13590;SDS011;6866;50.778;7.206;2023-06-26T06:53:02;10.00;;;4.90;;
13590;SDS011;6866;50.778;7.206;2023-06-26T06:55:28;7.65;;;4.40;;
13590;SDS011;6866;50.778;7.206;2023-06-26T06:57:54;10.18;;;4.22;;
13590;SDS011;6866;50.778;7.206;2023-06-26T07:00:19;11.27;;;4.43;;
13590;SDS011;6866;50.778;7.206;2023-06-26T07:02:45;9.48;;;3.95;;
13590;SDS011;6866;50.778;7.206;2023-06-26T07:05:11;9.90;;;4.22;;
13590;SDS011;6866;50.778;7.206;2023-06-26T07:07:37;8.98;;;4.25;;
13590;SDS011;6866;50.778;7.206;2023-06-26T07:10:05;9.35;;;4.30;;
13590;SDS011;6866;50.778;7.206;2023-06-26T07:14:59;11.23;;;4.45;;
13590;SDS011;6866;50.778;7.206;2023-06-26T09:21:36;13.32;;;4.15;;
13590;SDS011;6866;50.778;7.206;2023-06-26T09:24:02;11.30;;;3.55;;
13590;SDS011;6866;50.778;7.206;2023-06-26T09:26:28;8.43;;;3.20;;
13590;SDS011;6866;50.778;7.206;2023-06-26T09:28:53;10.00;;;3.30;;
13590;SDS011;6866;50.778;7.206;2023-06-26T09:31:20;13.02;;;3.47;;
13590;SDS011;6866;50.778;7.206;2023-06-26T09:33:46;8.73;;;3.38;;
13590;SDS011;6866;50.778;7.206;2023-06-26T09:36:19;8.43;;;3.20;;
13590;SDS011;6866;50.778;7.206;2023-06-26T09:41:16;10.75;;;3.33;;
13590;SDS011;6866;50.778;7.206;2023-06-26T09:43:48;14.63;;;3.45;;
13590;SDS011;6866;50.778;7.206;2023-06-26T09:46:17;9.35;;;3.40;;
13590;SDS011;6866;50.778;7.206;2023-06-26T09:48:49;11.50;;;3.20;;
13590;SDS011;6866;50.778;7.206;2023-06-26T09:51:22;9.93;;;3.20;;
13590;SDS011;6866;50.778;7.206;2023-06-26T09:53:48;11.93;;;3.72;;
13590;SDS011;6866;50.778;7.206;2023-06-26T09:56:17;10.50;;;3.35;;
13590;SDS011;6866;50.778;7.206;2023-06-26T09:58:43;12.70;;;3.45;;
13590;SDS011;6866;50.778;7.206;2023-06-26T10:01:09;11.70;;;3.53;;
13590;SDS011;6866;50.778;7.206;2023-06-26T10:03:35;12.45;;;3.40;;
13590;SDS011;6866;50.778;7.206;2023-06-26T10:06:01;9.57;;;3.03;;
13590;SDS011;6866;50.778;7.206;2023-06-26T10:08:27;8.43;;;3.05;;
13590;SDS011;6866;50.778;7.206;2023-06-26T10:10:54;9.55;;;2.88;;
13590;SDS011;6866;50.778;7.206;2023-06-26T10:13:22;11.93;;;2.83;;
13590;SDS011;6866;50.778;7.206;2023-06-26T10:15:52;7.68;;;2.85;;
13590;SDS011;6866;50.778;7.206;2023-06-26T10:18:19;16.30;;;3.00;;
13590;SDS011;6866;50.778;7.206;2023-06-26T10:20:48;8.57;;;2.53;;
13590;SDS011;6866;50.778;7.206;2023-06-26T10:23:16;11.32;;;2.88;;
13590;SDS011;6866;50.778;7.206;2023-06-26T10:25:44;10.75;;;2.40;;
13590;SDS011;6866;50.778;7.206;2023-06-26T10:28:13;10.80;;;2.78;;
13590;SDS011;6866;50.778;7.206;2023-06-26T10:30:40;9.38;;;3.03;;
13590;SDS011;6866;50.778;7.206;2023-06-26T10:33:07;11.50;;;2.75;;
13590;SDS011;6866;50.778;7.206;2023-06-26T10:35:34;7.93;;;2.58;;
13590;SDS011;6866;50.778;7.206;2023-06-26T10:38:08;8.65;;;2.60;;
13590;SDS011;6866;50.778;7.206;2023-06-26T10:40:42;9.85;;;2.65;;
13590;SDS011;6866;50.778;7.206;2023-06-26T10:43:13;9.55;;;2.40;;
13590;SDS011;6866;50.778;7.206;2023-06-26T10:45:46;12.65;;;2.42;;
13590;SDS011;6866;50.778;7.206;2023-06-26T10:48:17;11.52;;;2.70;;
13590;SDS011;6866;50.778;7.206;2023-06-26T10:50:42;8.93;;;2.65;;
13590;SDS011;6866;50.778;7.206;2023-06-26T10:53:15;7.55;;;2.60;;
13590;SDS011;6866;50.778;7.206;2023-06-26T10:56:04;5.25;;;1.85;;
13590;SDS011;6866;50.778;7.206;2023-06-26T11:03:39;15.25;;;4.38;;
13590;SDS011;6866;50.778;7.206;2023-06-26T11:06:09;9.02;;;2.38;;
13590;SDS011;6866;50.778;7.206;2023-06-26T11:08:43;8.27;;;2.42;;
13590;SDS011;6866;50.778;7.206;2023-06-26T11:11:13;7.97;;;2.20;;
13590;SDS011;6866;50.778;7.206;2023-06-26T11:13:39;9.05;;;2.30;;
13590;SDS011;6866;50.778;7.206;2023-06-26T11:16:05;6.97;;;2.38;;
13590;SDS011;6866;50.778;7.206;2023-06-26T11:18:31;7.65;;;2.28;;
13590;SDS011;6866;50.778;7.206;2023-06-26T11:21:07;7.95;;;2.42;;
13590;SDS011;6866;50.778;7.206;2023-06-26T11:23:34;9.50;;;2.65;;
13590;SDS011;6866;50.778;7.206;2023-06-26T11:26:16;6.68;;;2.25;;
13590;SDS011;6866;50.778;7.206;2023-06-26T11:28:53;5.65;;;2.00;;
13590;SDS011;6866;50.778;7.206;2023-06-26T11:31:23;7.63;;;1.75;;
13590;SDS011;6866;50.778;7.206;2023-06-26T11:33:49;7.22;;;1.83;;
13590;SDS011;6866;50.778;7.206;2023-06-26T11:36:15;4.97;;;1.80;;
13590;SDS011;6866;50.778;7.206;2023-06-26T11:38:41;6.15;;;2.20;;
13590;SDS011;6866;50.778;7.206;2023-06-26T11:41:06;10.25;;;2.15;;
13590;SDS011;6866;50.778;7.206;2023-06-26T11:43:33;10.27;;;2.20;;
13590;SDS011;6866;50.778;7.206;2023-06-26T11:45:59;6.65;;;2.10;;
13590;SDS011;6866;50.778;7.206;2023-06-26T11:48:25;9.43;;;2.30;;
13590;SDS011;6866;50.778;7.206;2023-06-26T11:50:51;8.50;;;2.05;;
13590;SDS011;6866;50.778;7.206;2023-06-26T11:53:16;8.02;;;2.35;;
13590;SDS011;6866;50.778;7.206;2023-06-26T11:55:42;8.90;;;2.00;;
13590;SDS011;6866;50.778;7.206;2023-06-26T11:58:08;5.35;;;2.05;;
13590;SDS011;6866;50.778;7.206;2023-06-26T12:00:33;9.85;;;2.00;;
13590;SDS011;6866;50.778;7.206;2023-06-26T12:02:59;7.90;;;2.00;;
13590;SDS011;6866;50.778;7.206;2023-06-26T12:05:24;8.25;;;1.85;;
13590;SDS011;6866;50.778;7.206;2023-06-26T12:07:50;7.43;;;2.05;;
13590;SDS011;6866;50.778;7.206;2023-06-26T12:10:16;7.03;;;1.95;;
13590;SDS011;6866;50.778;7.206;2023-06-26T12:12:43;5.28;;;1.70;;
13590;SDS011;6866;50.778;7.206;2023-06-26T12:15:12;5.95;;;2.05;;
13590;SDS011;6866;50.778;7.206;2023-06-26T12:17:40;9.23;;;2.25;;
13590;SDS011;6866;50.778;7.206;2023-06-26T12:20:06;7.95;;;2.00;;
13590;SDS011;6866;50.778;7.206;2023-06-26T12:22:49;6.57;;;1.73;;
13590;SDS011;6866;50.778;7.206;2023-06-26T12:25:15;7.32;;;2.00;;
13590;SDS011;6866;50.778;7.206;2023-06-26T12:27:47;5.95;;;2.08;;
13590;SDS011;6866;50.778;7.206;2023-06-26T12:30:12;7.55;;;1.90;;
13590;SDS011;6866;50.778;7.206;2023-06-26T12:32:38;6.25;;;1.75;;
13590;SDS011;6866;50.778;7.206;2023-06-26T12:35:04;9.20;;;1.90;;
13590;SDS011;6866;50.778;7.206;2023-06-26T12:37:30;13.40;;;2.00;;
13590;SDS011;6866;50.778;7.206;2023-06-26T12:40:05;6.22;;;1.90;;
13590;SDS011;6866;50.778;7.206;2023-06-26T12:42:42;4.72;;;1.90;;
13590;SDS011;6866;50.778;7.206;2023-06-26T12:45:11;8.73;;;2.13;;
13590;SDS011;6866;50.778;7.206;2023-06-26T12:47:38;7.43;;;2.00;;
13590;SDS011;6866;50.778;7.206;2023-06-26T12:50:06;7.80;;;2.05;;
13590;SDS011;6866;50.778;7.206;2023-06-26T12:52:32;13.73;;;2.08;;
13590;SDS011;6866;50.778;7.206;2023-06-26T12:54:57;5.40;;;1.92;;
13590;SDS011;6866;50.778;7.206;2023-06-26T12:57:23;8.27;;;1.83;;
13590;SDS011;6866;50.778;7.206;2023-06-26T12:59:49;8.38;;;2.13;;
13590;SDS011;6866;50.778;7.206;2023-06-26T13:02:15;6.97;;;2.00;;
13590;SDS011;6866;50.778;7.206;2023-06-26T13:04:41;9.20;;;2.17;;
13590;SDS011;6866;50.778;7.206;2023-06-26T13:07:07;6.18;;;1.95;;
13590;SDS011;6866;50.778;7.206;2023-06-26T13:09:33;9.48;;;2.00;;
13590;SDS011;6866;50.778;7.206;2023-06-26T13:11:59;6.35;;;2.13;;
13590;SDS011;6866;50.778;7.206;2023-06-26T13:14:25;5.82;;;2.00;;
13590;SDS011;6866;50.778;7.206;2023-06-26T13:16:51;7.45;;;2.08;;
13590;SDS011;6866;50.778;7.206;2023-06-26T13:19:16;10.98;;;2.50;;
13590;SDS011;6866;50.778;7.206;2023-06-26T13:21:42;10.63;;;2.67;;
13590;SDS011;6866;50.778;7.206;2023-06-26T13:24:08;7.35;;;1.98;;
13590;SDS011;6866;50.778;7.206;2023-06-26T13:26:34;8.35;;;2.15;;
13590;SDS011;6866;50.778;7.206;2023-06-26T13:29:00;6.10;;;2.10;;
13590;SDS011;6866;50.778;7.206;2023-06-26T13:31:26;8.00;;;1.98;;
13590;SDS011;6866;50.778;7.206;2023-06-26T13:33:53;8.77;;;2.15;;
13590;SDS011;6866;50.778;7.206;2023-06-26T13:36:18;6.43;;;1.90;;
13590;SDS011;6866;50.778;7.206;2023-06-26T13:38:44;8.23;;;2.00;;
13590;SDS011;6866;50.778;7.206;2023-06-26T13:41:11;7.75;;;1.92;;
13590;SDS011;6866;50.778;7.206;2023-06-26T13:43:36;12.13;;;1.80;;
13590;SDS011;6866;50.778;7.206;2023-06-26T13:46:02;4.82;;;1.80;;
13590;SDS011;6866;50.778;7.206;2023-06-26T13:48:28;6.53;;;2.20;;
13590;SDS011;6866;50.778;7.206;2023-06-26T13:50:54;8.55;;;2.03;;
13590;SDS011;6866;50.778;7.206;2023-06-26T13:53:21;11.65;;;2.22;;
13590;SDS011;6866;50.778;7.206;2023-06-26T13:55:47;6.55;;;1.80;;
13590;SDS011;6866;50.778;7.206;2023-06-26T13:58:12;9.07;;;1.90;;
13590;SDS011;6866;50.778;7.206;2023-06-26T14:00:38;5.72;;;1.50;;
13590;SDS011;6866;50.778;7.206;2023-06-26T14:03:04;12.27;;;1.52;;
13590;SDS011;6866;50.778;7.206;2023-06-26T14:05:35;6.90;;;1.75;;
13590;SDS011;6866;50.778;7.206;2023-06-26T14:08:02;3.97;;;1.40;;
13590;SDS011;6866;50.778;7.206;2023-06-26T14:10:29;7.88;;;1.60;;
13590;SDS011;6866;50.778;7.206;2023-06-26T14:12:55;5.28;;;1.67;;
13590;SDS011;6866;50.778;7.206;2023-06-26T14:15:20;7.38;;;1.50;;
13590;SDS011;6866;50.778;7.206;2023-06-26T14:17:46;5.13;;;1.48;;
13590;SDS011;6866;50.778;7.206;2023-06-26T14:20:15;7.95;;;1.77;;
13590;SDS011;6866;50.778;7.206;2023-06-26T14:22:41;7.15;;;1.45;;
13590;SDS011;6866;50.778;7.206;2023-06-26T14:25:09;4.97;;;1.45;;
13590;SDS011;6866;50.778;7.206;2023-06-26T14:27:35;10.07;;;1.83;;
13590;SDS011;6866;50.778;7.206;2023-06-26T14:30:02;7.70;;;1.77;;
13590;SDS011;6866;50.778;7.206;2023-06-26T14:32:28;7.60;;;1.85;;
13590;SDS011;6866;50.778;7.206;2023-06-26T14:34:55;7.32;;;1.58;;
13590;SDS011;6866;50.778;7.206;2023-06-26T14:37:20;5.18;;;1.60;;
13590;SDS011;6866;50.778;7.206;2023-06-26T14:39:46;6.97;;;1.70;;
13590;SDS011;6866;50.778;7.206;2023-06-26T14:42:11;7.68;;;1.67;;
13590;SDS011;6866;50.778;7.206;2023-06-26T14:44:37;6.80;;;1.63;;
13590;SDS011;6866;50.778;7.206;2023-06-26T14:47:03;6.07;;;1.55;;
13590;SDS011;6866;50.778;7.206;2023-06-26T14:49:30;4.75;;;1.70;;
13590;SDS011;6866;50.778;7.206;2023-06-26T14:51:55;6.55;;;1.60;;
13590;SDS011;6866;50.778;7.206;2023-06-26T14:54:21;5.18;;;1.50;;
13590;SDS011;6866;50.778;7.206;2023-06-26T14:56:46;6.25;;;1.80;;
13590;SDS011;6866;50.778;7.206;2023-06-26T14:59:12;6.63;;;1.70;;
13590;SDS011;6866;50.778;7.206;2023-06-26T15:01:38;8.43;;;1.83;;
13590;SDS011;6866;50.778;7.206;2023-06-26T15:04:04;10.23;;;1.42;;
13590;SDS011;6866;50.778;7.206;2023-06-26T15:06:30;7.80;;;1.60;;
13590;SDS011;6866;50.778;7.206;2023-06-26T15:08:56;5.88;;;1.40;;
13590;SDS011;6866;50.778;7.206;2023-06-26T15:11:21;4.30;;;1.48;;
13590;SDS011;6866;50.778;7.206;2023-06-26T15:13:47;9.80;;;1.88;;
13590;SDS011;6866;50.778;7.206;2023-06-26T15:16:12;4.60;;;1.45;;
13590;SDS011;6866;50.778;7.206;2023-06-26T15:18:38;6.88;;;1.77;;
13590;SDS011;6866;50.778;7.206;2023-06-26T15:21:05;6.93;;;1.63;;
13590;SDS011;6866;50.778;7.206;2023-06-26T15:23:30;7.28;;;1.98;;
13590;SDS011;6866;50.778;7.206;2023-06-26T15:25:56;6.68;;;1.60;;
13590;SDS011;6866;50.778;7.206;2023-06-26T15:28:21;3.42;;;1.45;;
13590;SDS011;6866;50.778;7.206;2023-06-26T15:30:47;8.65;;;1.38;;
13590;SDS011;6866;50.778;7.206;2023-06-26T15:33:13;5.78;;;1.80;;
13590;SDS011;6866;50.778;7.206;2023-06-26T15:35:39;5.38;;;1.60;;
13590;SDS011;6866;50.778;7.206;2023-06-26T15:38:04;5.70;;;1.55;;
13590;SDS011;6866;50.778;7.206;2023-06-26T15:40:30;6.93;;;1.65;;
13590;SDS011;6866;50.778;7.206;2023-06-26T15:42:56;8.48;;;1.92;;
13590;SDS011;6866;50.778;7.206;2023-06-26T15:45:21;6.63;;;1.92;;
13590;SDS011;6866;50.778;7.206;2023-06-26T15:47:49;6.57;;;1.67;;
13590;SDS011;6866;50.778;7.206;2023-06-26T15:50:15;4.85;;;1.77;;
13590;SDS011;6866;50.778;7.206;2023-06-26T15:52:41;7.88;;;1.70;;
13590;SDS011;6866;50.778;7.206;2023-06-26T15:55:07;6.78;;;1.67;;
13590;SDS011;6866;50.778;7.206;2023-06-26T15:57:34;6.22;;;1.83;;
13590;SDS011;6866;50.778;7.206;2023-06-26T16:00:00;5.30;;;1.75;;
13590;SDS011;6866;50.778;7.206;2023-06-26T16:02:26;4.00;;;1.63;;
13590;SDS011;6866;50.778;7.206;2023-06-26T16:04:51;4.78;;;1.67;;
13590;SDS011;6866;50.778;7.206;2023-06-26T16:07:17;5.03;;;1.55;;
13590;SDS011;6866;50.778;7.206;2023-06-26T16:09:42;6.55;;;1.70;;
13590;SDS011;6866;50.778;7.206;2023-06-26T16:12:08;7.47;;;1.50;;
13590;SDS011;6866;50.778;7.206;2023-06-26T16:14:34;5.00;;;1.50;;
13590;SDS011;6866;50.778;7.206;2023-06-26T16:16:59;5.15;;;1.58;;
13590;SDS011;6866;50.778;7.206;2023-06-26T16:19:25;3.58;;;1.70;;
13590;SDS011;6866;50.778;7.206;2023-06-26T16:21:51;9.38;;;1.70;;
13590;SDS011;6866;50.778;7.206;2023-06-26T16:24:17;5.78;;;1.77;;
13590;SDS011;6866;50.778;7.206;2023-06-26T16:26:42;5.35;;;1.60;;
13590;SDS011;6866;50.778;7.206;2023-06-26T16:29:08;10.25;;;1.67;;
13590;SDS011;6866;50.778;7.206;2023-06-26T16:31:33;4.45;;;1.40;;
13590;SDS011;6866;50.778;7.206;2023-06-26T16:33:59;4.20;;;1.58;;
13590;SDS011;6866;50.778;7.206;2023-06-26T16:36:25;5.40;;;1.42;;
13590;SDS011;6866;50.778;7.206;2023-06-26T16:38:51;6.10;;;1.63;;
13590;SDS011;6866;50.778;7.206;2023-06-26T16:41:17;3.63;;;1.50;;
13590;SDS011;6866;50.778;7.206;2023-06-26T16:43:43;5.70;;;1.50;;
13590;SDS011;6866;50.778;7.206;2023-06-26T16:46:08;6.45;;;1.52;;
13590;SDS011;6866;50.778;7.206;2023-06-26T16:48:34;7.68;;;1.90;;
13590;SDS011;6866;50.778;7.206;2023-06-26T16:50:59;6.45;;;1.50;;
13590;SDS011;6866;50.778;7.206;2023-06-26T16:53:25;3.67;;;1.55;;
13590;SDS011;6866;50.778;7.206;2023-06-26T16:55:50;7.18;;;1.75;;
13590;SDS011;6866;50.778;7.206;2023-06-26T16:58:16;10.55;;;1.80;;
13590;SDS011;6866;50.778;7.206;2023-06-26T17:00:43;4.57;;;1.45;;
13590;SDS011;6866;50.778;7.206;2023-06-26T17:03:09;5.07;;;1.33;;
13590;SDS011;6866;50.778;7.206;2023-06-26T17:05:34;6.20;;;1.58;;
13590;SDS011;6866;50.778;7.206;2023-06-26T17:08:00;4.93;;;1.50;;
13590;SDS011;6866;50.778;7.206;2023-06-26T17:10:25;7.75;;;1.67;;
13590;SDS011;6866;50.778;7.206;2023-06-26T17:12:51;10.13;;;1.55;;
13590;SDS011;6866;50.778;7.206;2023-06-26T17:15:17;6.63;;;1.58;;
13590;SDS011;6866;50.778;7.206;2023-06-26T17:17:42;5.72;;;1.55;;
13590;SDS011;6866;50.778;7.206;2023-06-26T17:20:08;4.53;;;1.63;;
13590;SDS011;6866;50.778;7.206;2023-06-26T17:22:37;5.20;;;1.38;;
13590;SDS011;6866;50.778;7.206;2023-06-26T17:25:03;6.05;;;1.73;;
13590;SDS011;6866;50.778;7.206;2023-06-26T17:27:32;7.13;;;1.77;;
13590;SDS011;6866;50.778;7.206;2023-06-26T17:29:58;6.32;;;1.90;;
13590;SDS011;6866;50.778;7.206;2023-06-26T17:32:25;10.48;;;1.83;;
13590;SDS011;6866;50.778;7.206;2023-06-26T17:34:50;6.00;;;1.65;;
13590;SDS011;6866;50.778;7.206;2023-06-26T17:37:17;4.90;;;1.70;;
13590;SDS011;6866;50.778;7.206;2023-06-26T17:39:43;6.82;;;1.60;;
13590;SDS011;6866;50.778;7.206;2023-06-26T17:42:08;5.40;;;1.70;;
13590;SDS011;6866;50.778;7.206;2023-06-26T17:44:34;7.65;;;1.65;;
13590;SDS011;6866;50.778;7.206;2023-06-26T17:47:00;6.68;;;1.70;;
13590;SDS011;6866;50.778;7.206;2023-06-26T17:49:26;8.18;;;1.50;;
13590;SDS011;6866;50.778;7.206;2023-06-26T17:51:51;6.32;;;1.55;;
13590;SDS011;6866;50.778;7.206;2023-06-26T17:54:17;6.20;;;1.50;;